Time;durP1;ratioP1;P1;durP2;ratioP2;P2;SDS_P1;SDS_P2;PMS_P1;PMS_P2;Temp;Humidity;BMP_temperature;BMP_pressure;BME280_temperature;BME280_humidity;BME280_pressure;Samples;Min_cycle;Max_cycle;Signal;HPM_P1;HPM_P2
2021/08/10 00:00:15;;;;;;;3.60;1.70;;;;;;;14.92;97.46;100808.38;5213298;28;20349;-78
2021/08/10 00:02:45;;;;;;;4.78;1.50;;;;;;;14.44;98.62;100812.53;5224185;28;20074;-76
2021/08/10 00:05:15;;;;;;;3.63;1.42;;;;;;;14.45;98.59;100808.97;5228215;28;20405;-78
2021/08/10 00:07:46;;;;;;;5.63;1.80;;;;;;;14.38;98.90;100807.53;5219717;28;20061;-78
2021/08/10 00:10:16;;;;;;;6.43;1.60;;;;;;;14.13;99.54;100809.59;5217533;28;20025;-79
2021/08/10 00:12:46;;;;;;;3.85;1.67;;;;;;;14.33;99.63;100815.69;5225523;28;20576;-78
2021/08/10 00:15:17;;;;;;;3.35;1.55;;;;;;;14.33;99.99;100814.81;5218324;28;20055;-77
2021/08/10 00:17:47;;;;;;;5.78;1.70;;;;;;;14.40;100.00;100811.81;5217452;28;20068;-77
2021/08/10 00:20:17;;;;;;;6.10;1.60;;;;;;;14.33;100.00;100805.16;5217408;28;20025;-79
2021/08/10 00:22:48;;;;;;;4.93;1.90;;;;;;;14.43;99.51;100808.19;5217971;28;20446;-78
2021/08/10 00:25:18;;;;;;;3.78;1.70;;;;;;;14.46;98.77;100811.53;5216716;28;20047;-77
2021/08/10 00:27:55;;;;;;;3.78;1.55;;;;;;;14.41;99.59;100803.00;5217158;28;20479;-78
2021/08/10 00:30:26;;;;;;;5.43;1.67;;;;;;;14.30;100.00;100800.03;5219427;28;20379;-77
2021/08/10 00:32:56;;;;;;;3.08;1.63;;;;;;;14.44;100.00;100796.75;5218849;28;20029;-79
2021/08/10 00:35:27;;;;;;;6.40;1.92;;;;;;;14.45;99.15;100795.84;5219656;28;20032;-79
2021/08/10 00:37:57;;;;;;;4.70;1.80;;;;;;;14.41;99.67;100796.91;5218150;28;20471;-78
2021/08/10 00:40:28;;;;;;;7.15;1.95;;;;;;;14.33;100.00;100794.63;5215070;28;20026;-78
2021/08/10 00:42:59;;;;;;;4.18;1.50;;;;;;;14.39;99.94;100788.25;5217271;28;20064;-78
2021/08/10 00:45:29;;;;;;;4.45;1.88;;;;;;;14.47;99.34;100799.22;5215369;28;20052;-78
2021/08/10 00:47:59;;;;;;;6.50;1.70;;;;;;;14.69;98.29;100794.63;5216814;28;20415;-79
2021/08/10 00:50:29;;;;;;;5.20;1.90;;;;;;;14.65;99.18;100803.63;5218591;28;20059;-78
2021/08/10 00:53:00;;;;;;;4.27;1.60;;;;;;;14.73;100.00;100794.41;5217977;28;20282;-78
2021/08/10 00:55:30;;;;;;;5.50;1.98;;;;;;;14.71;99.79;100795.41;5216963;28;20283;-79
2021/08/10 00:58:00;;;;;;;4.27;1.63;;;;;;;14.71;99.81;100784.88;5216132;28;20032;-78
2021/08/10 01:00:30;;;;;;;4.78;1.60;;;;;;;14.42;100.00;100793.34;5217903;28;20263;-78
2021/08/10 01:03:02;;;;;;;4.33;1.93;;;;;;;14.32;100.00;100792.06;5213652;28;20041;-79
2021/08/10 01:05:34;;;;;;;4.57;1.77;;;;;;;14.26;100.00;100787.94;5220810;28;20271;-78
2021/08/10 01:08:34;;;;;;;3.17;1.58;;;;;;;14.37;99.79;100785.69;5211409;28;20083;-78
2021/08/10 01:11:38;;;;;;;4.25;1.42;;;;;;;14.43;99.68;100779.28;5204943;28;20383;-78
2021/08/10 01:14:26;;;;;;;5.30;1.70;;;;;;;14.47;97.99;100781.69;5212388;28;20026;-78
2021/08/10 01:17:03;;;;;;;3.65;1.70;;;;;;;14.36;99.55;100783.97;5213592;28;20052;-78
2021/08/10 01:19:57;;;;;;;4.47;1.75;;;;;;;14.32;99.82;100781.56;5217276;28;20116;-78
2021/08/10 01:22:29;;;;;;;5.65;1.90;;;;;;;14.37;99.61;100780.41;5215721;28;20033;-79
2021/08/10 01:25:37;;;;;;;5.43;1.70;;;;;;;14.49;97.50;100778.97;5214506;28;20025;-78
2021/08/10 01:28:22;;;;;;;4.57;1.67;;;;;;;14.25;99.12;100780.16;5215255;28;20021;-78
2021/08/10 01:31:05;;;;;;;2.85;1.30;;;;;;;14.30;97.37;100775.50;5214101;28;20104;-78
2021/08/10 01:33:48;;;;;;;3.42;1.60;;;;;;;14.20;98.70;100782.13;5216024;28;20033;-78
2021/08/10 01:36:21;;;;;;;3.95;1.60;;;;;;;13.90;100.00;100780.91;5209863;28;20021;-78
2021/08/10 01:38:57;;;;;;;3.55;1.60;;;;;;;14.09;100.00;100776.50;5214799;28;20383;-78
2021/08/10 01:41:30;;;;;;;2.97;1.60;;;;;;;13.93;100.00;100773.72;5213438;28;20030;-79
2021/08/10 01:44:01;;;;;;;4.25;1.60;;;;;;;13.80;100.00;100780.47;5216302;28;20090;-79
2021/08/10 01:46:32;;;;;;;6.47;1.80;;;;;;;14.07;99.78;100771.31;5214647;28;20031;-78
2021/08/10 01:49:04;;;;;;;4.47;1.80;;;;;;;14.15;98.91;100784.97;5216043;28;20496;-78
2021/08/10 01:51:35;;;;;;;3.42;1.60;;;;;;;14.02;98.51;100788.19;5216625;28;20025;-78
2021/08/10 01:54:09;;;;;;;7.97;1.80;;;;;;;13.98;99.47;100786.66;5214327;28;20133;-78
2021/08/10 01:56:40;;;;;;;5.45;1.50;;;;;;;14.04;99.40;100781.09;5209651;28;20025;-78
2021/08/10 01:59:12;;;;;;;3.85;1.52;;;;;;;13.82;100.00;100785.63;5213043;28;20025;-77
2021/08/10 02:01:43;;;;;;;4.47;2.10;;;;;;;13.82;100.00;100786.50;5218006;28;20040;-78
2021/08/10 02:04:19;;;;;;;3.28;1.63;;;;;;;13.55;100.00;100785.09;5220872;28;20084;-77
2021/08/10 02:06:51;;;;;;;5.18;1.88;;;;;;;13.49;100.00;100784.50;5223919;28;20391;-77
2021/08/10 02:09:21;;;;;;;4.95;1.70;;;;;;;13.51;100.00;100782.66;5219660;28;20379;-78
2021/08/10 02:11:53;;;;;;;6.40;1.80;;;;;;;13.60;100.00;100787.53;5212760;28;20024;-78
2021/08/10 02:14:26;;;;;;;4.60;1.60;;;;;;;13.47;100.00;100783.72;5212476;28;20025;-78
2021/08/10 02:17:01;;;;;;;7.60;2.28;;;;;;;13.57;100.00;100787.66;5220234;28;20279;-78
2021/08/10 02:19:33;;;;;;;4.43;1.65;;;;;;;13.37;100.00;100788.53;5218643;28;20071;-78
2021/08/10 02:22:07;;;;;;;5.05;1.88;;;;;;;13.48;100.00;100788.06;5212515;28;20037;-78
2021/08/10 02:24:43;;;;;;;5.25;2.03;;;;;;;13.50;100.00;100781.84;5212905;28;20040;-78
2021/08/10 02:27:20;;;;;;;5.60;1.83;;;;;;;13.42;100.00;100790.97;5221924;28;20043;-78
2021/08/10 02:29:52;;;;;;;3.28;1.67;;;;;;;13.55;100.00;100789.53;5224702;28;20032;-78
2021/08/10 02:32:25;;;;;;;4.85;1.92;;;;;;;13.65;100.00;100782.91;5225985;28;20013;-78
2021/08/10 02:34:58;;;;;;;4.90;1.70;;;;;;;13.90;100.00;100780.91;5221652;28;20029;-78
2021/08/10 02:37:31;;;;;;;4.95;1.90;;;;;;;13.96;100.00;100775.34;5223117;28;20063;-78
2021/08/10 02:40:06;;;;;;;6.93;1.90;;;;;;;14.00;100.00;100771.66;5224593;28;20069;-78
2021/08/10 02:42:37;;;;;;;5.65;1.70;;;;;;;14.11;100.00;100772.84;5224652;28;20036;-78
2021/08/10 02:45:08;;;;;;;4.45;1.98;;;;;;;14.11;100.00;100770.22;5224254;28;20037;-78
2021/08/10 02:47:38;;;;;;;5.47;2.00;;;;;;;14.03;100.00;100775.00;5222086;28;20021;-78
2021/08/10 02:50:09;;;;;;;6.35;2.00;;;;;;;14.18;100.00;100768.19;5225127;28;20032;-77
2021/08/10 02:52:39;;;;;;;4.50;2.00;;;;;;;14.08;100.00;100764.28;5221432;28;20033;-78
2021/08/10 02:55:10;;;;;;;7.38;2.08;;;;;;;14.09;100.00;100768.63;5225329;28;20454;-78
2021/08/10 02:58:04;;;;;;;7.20;2.10;;;;;;;14.00;100.00;100767.28;5224346;28;20029;-77
2021/08/10 03:00:39;;;;;;;6.03;2.10;;;;;;;14.01;100.00;100762.84;5223610;28;20494;-78
2021/08/10 03:03:13;;;;;;;6.18;2.00;;;;;;;13.94;100.00;100770.16;5225187;28;20490;-78
2021/08/10 03:05:46;;;;;;;5.80;1.70;;;;;;;14.00;100.00;100762.00;5229733;28;20035;-78
2021/08/10 03:08:24;;;;;;;5.60;2.00;;;;;;;14.11;100.00;100761.50;5224413;28;20036;-78
2021/08/10 03:10:55;;;;;;;6.63;2.20;;;;;;;14.19;100.00;100759.38;5224261;28;20025;-78
2021/08/10 03:13:30;;;;;;;4.75;1.70;;;;;;;14.22;100.00;100769.78;5225401;28;20021;-78
2021/08/10 03:16:01;;;;;;;5.13;1.83;;;;;;;14.29;100.00;100773.81;5223564;28;20079;-77
2021/08/10 03:18:36;;;;;;;4.07;2.00;;;;;;;14.22;100.00;100770.63;5225642;28;20119;-78
2021/08/10 03:21:07;;;;;;;3.90;1.80;;;;;;;14.04;100.00;100775.84;5220390;28;20033;-79
2021/08/10 03:23:40;;;;;;;5.78;1.70;;;;;;;13.80;100.00;100782.22;5222212;28;20040;-78
2021/08/10 03:26:14;;;;;;;4.65;1.90;;;;;;;14.05;100.00;100785.47;5220541;28;20053;-78
2021/08/10 03:28:45;;;;;;;6.03;2.10;;;;;;;14.05;100.00;100777.56;5221444;28;20059;-77
2021/08/10 03:31:17;;;;;;;4.05;1.90;;;;;;;14.08;100.00;100773.00;5223024;28;20518;-78
2021/08/10 03:33:48;;;;;;;4.65;1.88;;;;;;;13.99;100.00;100770.81;5227659;28;20360;-78
2021/08/10 03:36:20;;;;;;;6.90;2.20;;;;;;;14.03;100.00;100771.50;5225415;28;20032;-77
2021/08/10 03:38:55;;;;;;;4.55;2.00;;;;;;;14.10;100.00;100776.41;5224381;28;20084;-78
2021/08/10 03:41:26;;;;;;;6.22;1.92;;;;;;;14.22;100.00;100769.78;5224787;28;20036;-78
2021/08/10 03:43:57;;;;;;;5.82;1.80;;;;;;;14.38;100.00;100770.72;5222390;28;20085;-78
2021/08/10 03:46:30;;;;;;;4.65;1.85;;;;;;;14.37;100.00;100767.28;5220750;28;20118;-78
2021/08/10 03:49:01;;;;;;;5.05;2.10;;;;;;;14.35;100.00;100763.88;5229357;28;20036;-77
2021/08/10 03:51:35;;;;;;;5.85;2.10;;;;;;;14.31;100.00;100758.81;5225274;28;20051;-77
2021/08/10 03:54:06;;;;;;;6.65;1.95;;;;;;;14.24;100.00;100752.16;5224715;28;20022;-78
2021/08/10 03:56:38;;;;;;;5.70;2.10;;;;;;;14.25;100.00;100759.13;5219258;28;20025;-78
2021/08/10 03:59:10;;;;;;;4.53;1.98;;;;;;;14.34;100.00;100758.66;5222058;28;20029;-78
2021/08/10 04:01:41;;;;;;;4.22;1.67;;;;;;;14.45;100.00;100753.75;5225035;28;20107;-78
2021/08/10 04:04:12;;;;;;;5.55;2.05;;;;;;;14.43;100.00;100763.50;5227057;28;20569;-78
2021/08/10 04:06:43;;;;;;;7.72;1.90;;;;;;;14.58;100.00;100760.13;5229120;28;20025;-78
2021/08/10 04:09:14;;;;;;;6.75;1.98;;;;;;;14.61;100.00;100747.66;5224372;28;20040;-78
2021/08/10 04:11:44;;;;;;;5.88;1.90;;;;;;;14.74;100.00;100758.44;5224158;28;20029;-78
2021/08/10 04:14:16;;;;;;;6.28;1.90;;;;;;;14.74;100.00;100764.53;5223284;28;20032;-78
2021/08/10 04:16:55;;;;;;;4.53;1.95;;;;;;;14.79;100.00;100751.16;5225077;28;20028;-78
2021/08/10 04:19:28;;;;;;;6.63;1.90;;;;;;;14.83;100.00;100751.78;5225486;28;20078;-78
2021/08/10 04:21:59;;;;;;;5.47;1.95;;;;;;;14.80;100.00;100766.03;5222801;28;20076;-78
2021/08/10 04:24:30;;;;;;;3.53;1.67;;;;;;;14.83;100.00;100762.31;5224011;28;20037;-78
2021/08/10 04:27:00;;;;;;;5.40;1.88;;;;;;;14.93;100.00;100750.41;5218829;28;20028;-78
2021/08/10 04:29:30;;;;;;;4.93;1.85;;;;;;;14.96;100.00;100754.66;5224432;28;20037;-79
2021/08/10 04:32:01;;;;;;;6.03;2.00;;;;;;;14.95;100.00;100748.53;5225131;28;20434;-77
2021/08/10 04:34:31;;;;;;;5.50;2.05;;;;;;;14.87;100.00;100755.13;5225803;28;20029;-78
2021/08/10 04:37:03;;;;;;;5.78;1.80;;;;;;;14.81;100.00;100749.31;5225119;28;20648;-77
2021/08/10 04:39:33;;;;;;;4.47;1.80;;;;;;;15.07;100.00;100760.22;5225410;28;20037;-78
2021/08/10 04:42:04;;;;;;;4.10;1.70;;;;;;;15.22;100.00;100748.91;5221034;28;20029;-78
2021/08/10 04:44:34;;;;;;;3.80;2.00;;;;;;;15.15;100.00;100744.91;5222692;28;20557;-78
2021/08/10 04:47:05;;;;;;;5.68;1.60;;;;;;;15.09;100.00;100750.47;5227006;28;20017;-78
2021/08/10 04:49:35;;;;;;;6.10;1.95;;;;;;;15.04;100.00;100752.50;5228766;28;20036;-78
2021/08/10 04:52:05;;;;;;;3.33;1.70;;;;;;;15.29;98.28;100759.09;5225755;28;20382;-78
2021/08/10 04:54:36;;;;;;;3.72;1.52;;;;;;;15.62;97.19;100751.19;5228600;28;20033;-77
2021/08/10 04:57:06;;;;;;;5.32;1.83;;;;;;;15.90;96.07;100751.41;5223370;28;20557;-78
2021/08/10 04:59:36;;;;;;;4.97;1.98;;;;;;;16.28;94.25;100756.28;5229545;28;20355;-78
2021/08/10 05:02:07;;;;;;;5.40;1.70;;;;;;;16.25;93.59;100774.06;5226498;28;20072;-78
2021/08/10 05:04:37;;;;;;;4.55;1.60;;;;;;;16.09;95.35;100774.06;5234450;28;20039;-78
2021/08/10 05:07:08;;;;;;;5.13;1.67;;;;;;;16.08;95.28;100788.16;5228961;28;20029;-78
2021/08/10 05:09:38;;;;;;;4.90;1.67;;;;;;;16.05;96.45;100793.59;5230030;28;20358;-78
2021/08/10 05:12:09;;;;;;;5.93;1.92;;;;;;;16.01;98.34;100786.81;5224834;28;20029;-78
2021/08/10 05:14:39;;;;;;;3.80;1.75;;;;;;;15.76;99.55;100786.44;5229650;28;20494;-78
2021/08/10 05:17:09;;;;;;;8.93;2.00;;;;;;;15.79;100.00;100782.75;5226998;28;20051;-77
2021/08/10 05:19:40;;;;;;;4.45;1.85;;;;;;;15.94;100.00;100779.31;5229458;28;20058;-78
2021/08/10 05:22:10;;;;;;;4.40;1.85;;;;;;;16.27;99.85;100783.59;5227246;28;20037;-79
2021/08/10 05:24:40;;;;;;;3.22;1.80;;;;;;;16.37;97.76;100787.44;5229186;28;20081;-78
2021/08/10 05:27:11;;;;;;;4.57;1.70;;;;;;;16.47;97.42;100772.81;5222093;28;20542;-78
2021/08/10 05:29:41;;;;;;;4.57;1.70;;;;;;;16.40;96.50;100774.06;5229841;28;20029;-78
2021/08/10 05:34:47;;;;;;;3.22;1.45;;;;;;;16.41;99.41;100764.38;5290361;27;20126;-78
2021/08/10 05:37:18;;;;;;;3.95;1.70;;;;;;;16.32;99.62;100755.16;5301322;27;20106;-78
2021/08/10 05:39:48;;;;;;;4.55;1.70;;;;;;;16.64;97.74;100742.81;5300508;27;20492;-78
2021/08/10 05:42:18;;;;;;;5.10;1.60;;;;;;;16.89;97.12;100741.28;5300939;27;20076;-78
2021/08/10 05:44:48;;;;;;;4.05;1.70;;;;;;;16.88;97.82;100734.31;5302950;27;20292;-78
2021/08/10 05:47:19;;;;;;;7.53;1.85;;;;;;;17.08;96.64;100741.91;5284092;27;20535;-78
2021/08/10 05:49:49;;;;;;;4.53;1.80;;;;;;;17.29;94.39;100733.56;5301402;27;20020;-77
2021/08/10 05:52:19;;;;;;;9.63;4.70;;;;;;;16.89;98.54;100757.13;5296536;27;20495;-78
2021/08/10 05:54:50;;;;;;;8.25;2.13;;;;;;;16.96;97.80;100755.84;5296945;27;20364;-78
2021/08/10 05:57:20;;;;;;;5.90;1.83;;;;;;;17.06;97.85;100757.88;5294022;27;20028;-78
2021/08/10 05:59:50;;;;;;;5.50;1.85;;;;;;;16.79;99.21;100774.47;5299818;27;20297;-78
2021/08/10 06:02:20;;;;;;;4.37;1.67;;;;;;;17.01;98.23;100775.75;5301588;27;20030;-76
2021/08/10 06:04:52;;;;;;;5.45;1.80;;;;;;;16.97;98.96;100768.94;5290516;27;20286;-76
2021/08/10 06:07:22;;;;;;;5.15;1.80;;;;;;;17.00;97.91;100771.41;5294460;27;20110;-76
2021/08/10 06:09:52;;;;;;;4.47;1.52;;;;;;;16.94;97.88;100770.94;5290172;27;20168;-76
2021/08/10 06:12:23;;;;;;;6.53;1.90;;;;;;;16.94;97.45;100770.94;5296080;27;20028;-76
2021/08/10 06:14:53;;;;;;;6.57;1.80;;;;;;;16.82;98.26;100776.94;5291909;27;20277;-76
2021/08/10 06:17:23;;;;;;;5.15;1.70;;;;;;;16.91;97.55;100769.31;5288808;27;20762;-77
2021/08/10 06:19:53;;;;;;;4.37;1.80;;;;;;;16.77;97.95;100757.88;5293208;27;20404;-76
2021/08/10 06:22:24;;;;;;;4.27;1.70;;;;;;;17.08;95.46;100763.91;5294547;27;20426;-76
2021/08/10 06:24:54;;;;;;;4.40;1.58;;;;;;;17.03;97.77;100754.53;5291429;27;20279;-76
2021/08/10 06:27:25;;;;;;;5.68;1.83;;;;;;;17.19;96.62;100742.13;5290122;27;20483;-76
2021/08/10 06:29:55;;;;;;;5.03;1.80;;;;;;;17.23;96.41;100754.22;5294310;27;20126;-76
2021/08/10 06:32:25;;;;;;;7.30;1.92;;;;;;;17.45;96.22;100754.66;5286125;27;20098;-76
2021/08/10 06:34:55;;;;;;;4.88;1.50;;;;;;;17.66;95.25;100767.41;5288725;27;20271;-76
2021/08/10 06:37:26;;;;;;;5.73;1.70;;;;;;;17.72;92.49;100776.75;5293321;27;20023;-76
2021/08/10 06:39:56;;;;;;;6.97;1.63;;;;;;;17.71;92.88;100775.06;5296064;27;20280;-77
2021/08/10 06:42:26;;;;;;;5.47;1.60;;;;;;;17.94;92.52;100766.53;5293275;27;20030;-76
2021/08/10 06:44:59;;;;;;;5.28;1.60;;;;;;;17.99;92.50;100764.47;5296565;27;20026;-76
2021/08/10 06:47:29;;;;;;;6.20;1.50;;;;;;;18.16;91.35;100766.91;5293104;27;20110;-76
2021/08/10 06:49:59;;;;;;;5.80;1.50;;;;;;;18.32;92.38;100765.03;5291856;27;20157;-76
2021/08/10 06:52:29;;;;;;;5.35;1.48;;;;;;;18.14;91.46;100764.34;5296366;27;21422;-76
2021/08/10 06:55:00;;;;;;;5.70;1.75;;;;;;;18.24;92.94;100760.19;5289936;27;20407;-76
2021/08/10 06:57:30;;;;;;;5.00;1.88;;;;;;;18.23;92.94;100758.47;5290664;27;20046;-76
2021/08/10 07:00:00;;;;;;;4.13;1.50;;;;;;;18.35;92.14;100764.81;5292841;27;20032;-76
2021/08/10 07:02:30;;;;;;;3.92;1.40;;;;;;;18.52;90.70;100762.75;5296411;27;20292;-77
2021/08/10 07:05:01;;;;;;;4.25;1.75;;;;;;;18.30;91.46;100761.59;5287566;27;20032;-76
2021/08/10 07:07:31;;;;;;;6.20;1.53;;;;;;;18.33;91.54;100769.38;5292714;27;20038;-77
2021/08/10 07:10:03;;;;;;;4.95;1.60;;;;;;;18.00;91.12;100766.16;5296297;27;20457;-76
2021/08/10 07:12:33;;;;;;;3.83;1.50;;;;;;;18.03;91.93;100758.03;5291918;27;20114;-76
2021/08/10 07:15:04;;;;;;;6.47;1.77;;;;;;;18.10;92.36;100756.69;5292022;27;20441;-76
2021/08/10 07:17:34;;;;;;;7.18;1.83;;;;;;;17.91;93.75;100751.72;5281584;27;20270;-76
2021/08/10 07:20:05;;;;;;;5.33;1.60;;;;;;;17.84;94.42;100758.31;5293269;27;20026;-76
2021/08/10 07:22:35;;;;;;;3.88;1.73;;;;;;;17.96;94.86;100754.06;5290542;27;20316;-76
2021/08/10 07:25:06;;;;;;;6.55;1.80;;;;;;;17.86;95.14;100753.78;5289887;27;20032;-76
2021/08/10 07:27:37;;;;;;;4.57;1.65;;;;;;;18.03;95.33;100755.41;5289478;27;20061;-76
2021/08/10 07:30:07;;;;;;;6.38;1.65;;;;;;;18.29;94.57;100755.47;5290611;27;20035;-76
2021/08/10 07:32:38;;;;;;;5.93;1.90;;;;;;;18.43;93.55;100760.72;5289691;27;20432;-76
2021/08/10 07:35:09;;;;;;;9.30;2.15;;;;;;;18.49;92.06;100757.66;5289732;27;20028;-76
2021/08/10 07:37:43;;;;;;;6.47;2.28;;;;;;;18.75;89.67;100765.59;5292696;27;20023;-76
2021/08/10 07:40:14;;;;;;;7.45;2.10;;;;;;;19.18;89.72;100750.38;5288375;27;20051;-76
2021/08/10 07:42:44;;;;;;;9.65;2.25;;;;;;;19.93;83.71;100745.91;5290830;27;20019;-76
2021/08/10 07:45:14;;;;;;;6.22;2.08;;;;;;;20.17;83.95;100759.25;5291841;27;20031;-76
2021/08/10 07:47:45;;;;;;;12.85;2.13;;;;;;;22.09;78.49;100743.44;5292384;27;20416;-76
2021/08/10 07:50:16;;;;;;;13.07;2.40;;;;;;;23.58;70.98;100742.38;5294064;27;20120;-76
2021/08/10 07:52:48;;;;;;;10.20;2.40;;;;;;;23.05;72.82;100744.22;5294240;27;20020;-76
2021/08/10 07:55:18;;;;;;;9.68;2.13;;;;;;;22.98;71.63;100747.56;5293282;27;20027;-77
2021/08/10 07:57:48;;;;;;;5.38;1.77;;;;;;;22.73;71.41;100737.25;5289936;27;20028;-77
2021/08/10 08:00:19;;;;;;;6.60;1.98;;;;;;;22.69;71.95;100731.31;5282214;28;20047;-77
2021/08/10 08:02:49;;;;;;;10.10;2.53;;;;;;;21.90;74.63;100740.53;5281873;28;20416;-76
2021/08/10 08:05:19;;;;;;;6.80;1.85;;;;;;;21.23;76.75;100737.94;5286529;28;20270;-76
2021/08/10 08:07:50;;;;;;;5.43;1.98;;;;;;;21.55;76.70;100734.47;5278054;27;20059;-77
2021/08/10 08:10:20;;;;;;;6.05;2.20;;;;;;;21.69;75.39;100733.41;5281624;28;20088;-76
2021/08/10 08:12:50;;;;;;;7.45;2.10;;;;;;;22.98;72.07;100718.25;5285539;28;20500;-76
2021/08/10 08:15:21;;;;;;;7.70;1.90;;;;;;;23.60;69.49;100713.72;5284622;28;20115;-76
2021/08/10 08:17:51;;;;;;;7.82;2.00;;;;;;;23.59;69.35;100712.03;5282491;28;20274;-77
2021/08/10 08:20:21;;;;;;;6.15;2.13;;;;;;;23.46;68.75;100711.41;5275929;28;20043;-76
2021/08/10 08:22:52;;;;;;;5.68;2.00;;;;;;;22.68;70.41;100724.28;5295921;27;20107;-77
2021/08/10 08:25:23;;;;;;;7.20;2.03;;;;;;;24.50;66.03;100703.75;5298267;27;20087;-77
2021/08/10 08:27:53;;;;;;;8.32;1.85;;;;;;;24.12;67.27;100717.06;5292872;27;20023;-77
2021/08/10 08:30:23;;;;;;;6.72;2.00;;;;;;;23.01;69.53;100721.47;5294880;27;20050;-77
2021/08/10 08:32:54;;;;;;;10.68;2.05;;;;;;;22.67;71.03;100727.09;5296279;27;20561;-76
2021/08/10 08:35:24;;;;;;;6.60;2.03;;;;;;;23.09;68.59;100723.50;5291000;27;20019;-75
2021/08/10 08:37:54;;;;;;;4.93;1.80;;;;;;;23.93;67.28;100700.97;5292909;27;20337;-76
2021/08/10 08:40:25;;;;;;;5.45;2.22;;;;;;;24.82;64.53;100704.34;5286652;27;20276;-76
2021/08/10 08:42:55;;;;;;;6.95;1.88;;;;;;;25.05;64.10;100708.41;5292278;27;20023;-76
2021/08/10 08:45:25;;;;;;;4.65;2.05;;;;;;;26.88;60.83;100697.41;5293046;27;20048;-77
2021/08/10 08:47:57;;;;;;;6.33;2.13;;;;;;;26.58;60.89;100709.50;5293418;27;20026;-77
2021/08/10 08:50:31;;;;;;;6.07;2.30;;;;;;;27.49;58.65;100705.41;5295304;27;20031;-77
2021/08/10 08:53:05;;;;;;;9.43;2.20;;;;;;;26.97;58.91;100712.56;5290055;27;20472;-77
2021/08/10 08:55:36;;;;;;;5.60;1.90;;;;;;;29.56;56.12;100707.78;5284867;27;20062;-76
2021/08/10 08:58:06;;;;;;;5.95;2.00;;;;;;;30.49;51.22;100702.31;5288044;27;20073;-76
2021/08/10 09:00:37;;;;;;;3.40;1.40;;;;;;;30.48;53.38;100704.19;5290753;27;20431;-77
2021/08/10 09:03:07;;;;;;;6.63;1.70;;;;;;;28.40;54.68;100709.06;5297992;27;20313;-77
2021/08/10 09:05:41;;;;;;;5.25;1.75;;;;;;;28.83;54.04;100703.38;5290637;27;20123;-77
2021/08/10 09:08:34;;;;;;;3.05;1.52;;;;;;;29.74;53.04;100697.63;5299776;27;20032;-77
2021/08/10 09:11:07;;;;;;;3.58;2.10;;;;;;;28.29;53.74;100703.13;5283810;27;20506;-77
2021/08/10 09:13:42;;;;;;;5.07;1.88;;;;;;;28.76;52.77;100700.53;5291536;27;20064;-77
2021/08/10 09:16:19;;;;;;;4.10;1.80;;;;;;;28.71;53.95;100691.28;5292926;27;20360;-77
2021/08/10 09:18:50;;;;;;;6.07;2.22;;;;;;;27.85;55.76;100699.78;5286240;27;20420;-76
2021/08/10 09:21:22;;;;;;;6.47;1.92;;;;;;;27.57;56.21;100692.88;5286256;27;21129;-76
2021/08/10 09:23:57;;;;;;;6.15;2.03;;;;;;;27.32;56.29;100685.69;5284547;27;20039;-76
2021/08/10 09:26:31;;;;;;;5.88;1.98;;;;;;;26.14;57.90;100696.97;5282861;27;20043;-77
2021/08/10 09:29:01;;;;;;;6.32;2.30;;;;;;;26.39;59.22;100689.03;5293993;27;20484;-76
2021/08/10 09:31:40;;;;;;;7.93;2.17;;;;;;;26.34;59.10;100695.84;5298007;27;20033;-77
2021/08/10 09:34:27;;;;;;;5.70;2.40;;;;;;;26.23;58.92;100688.84;5287424;27;20035;-76
2021/08/10 09:36:58;;;;;;;5.20;2.50;;;;;;;26.58;59.40;100682.69;5289351;27;20178;-77
2021/08/10 09:39:30;;;;;;;7.50;2.60;;;;;;;26.14;58.96;100686.25;5290294;27;20055;-75
2021/08/10 09:42:05;;;;;;;7.88;2.60;;;;;;;26.50;58.34;100680.78;5284983;27;20503;-76
2021/08/10 09:44:36;;;;;;;7.70;2.75;;;;;;;26.49;58.06;100672.91;5284045;27;20084;-76
2021/08/10 09:47:07;;;;;;;7.43;2.50;;;;;;;25.95;59.93;100678.28;5297477;27;20130;-76
2021/08/10 09:49:45;;;;;;;6.22;2.85;;;;;;;25.78;60.96;100676.38;5287008;27;20031;-76
2021/08/10 09:52:27;;;;;;;9.20;3.22;;;;;;;25.85;60.73;100672.97;5291601;27;20773;-76
2021/08/10 09:55:18;;;;;;;6.22;3.47;;;;;;;26.10;59.09;100672.28;5280948;27;20045;-76
2021/08/10 09:58:00;;;;;;;9.32;4.47;;;;;;;25.96;58.68;100674.59;5279447;27;20044;-77
2021/08/10 10:00:42;;;;;;;9.57;4.35;;;;;;;25.49;58.41;100673.00;5280111;27;20034;-77
2021/08/10 10:03:17;;;;;;;9.05;3.90;;;;;;;25.81;59.30;100662.69;5278475;27;20036;-78
2021/08/10 10:05:48;;;;;;;;;;;;;;;25.64;56.29;100663.50;5280002;27;20106;-77
2021/08/10 10:08:19;;;;;;;8.95;4.47;;;;;;;25.41;57.17;100676.41;5291834;27;20007;-77
2021/08/10 10:10:52;;;;;;;6.78;3.80;;;;;;;25.26;56.59;100674.31;5291978;27;20031;-77
2021/08/10 10:13:23;;;;;;;7.28;3.72;;;;;;;24.89;57.22;100668.88;5293588;27;20516;-78
2021/08/10 10:15:54;;;;;;;5.38;3.25;;;;;;;25.04;57.16;100662.09;5293429;27;20059;-77
2021/08/10 10:18:26;;;;;;;7.28;3.35;;;;;;;24.69;59.05;100666.34;5289491;27;21001;-77
2021/08/10 10:20:57;;;;;;;5.10;3.00;;;;;;;24.71;60.69;100664.38;5288191;27;20024;-77
2021/08/10 10:23:30;;;;;;;6.15;3.22;;;;;;;24.21;60.97;100673.47;5294977;27;20396;-77
2021/08/10 10:26:02;;;;;;;8.05;3.38;;;;;;;24.42;59.83;100666.16;5288440;27;20345;-77
2021/08/10 10:28:33;;;;;;;6.90;3.75;;;;;;;24.30;60.47;100667.31;5291114;27;20387;-77
2021/08/10 10:31:04;;;;;;;10.20;3.47;;;;;;;;;;5295352;27;20492;-77
2021/08/10 10:33:35;;;;;;;5.88;3.30;;;;;;;24.03;59.19;100661.75;5283936;27;20485;-77
2021/08/10 10:36:06;;;;;;;6.22;3.03;;;;;;;23.63;61.75;100660.94;5287501;27;20505;-77
2021/08/10 10:38:40;;;;;;;6.15;3.38;;;;;;;23.92;61.29;100661.03;5282820;27;20049;-77
2021/08/10 10:41:13;;;;;;;5.20;3.23;;;;;;;24.51;58.95;100646.63;5287619;27;20091;-77
2021/08/10 10:43:44;;;;;;;6.45;3.40;;;;;;;24.85;60.23;100653.25;5288904;27;20410;-78
2021/08/10 10:46:25;;;;;;;6.93;3.00;;;;;;;24.62;60.42;100654.56;5281830;27;20023;-77
2021/08/10 10:48:57;;;;;;;5.13;2.78;;;;;;;24.73;60.47;100649.03;5292779;27;20397;-77
2021/08/10 10:51:30;;;;;;;7.45;3.22;;;;;;;24.73;59.31;100646.38;5294302;27;20106;-77
2021/08/10 10:54:26;;;;;;;5.22;2.80;;;;;;;24.89;60.36;100646.63;5285622;27;20031;-77
2021/08/10 10:57:00;;;;;;;7.07;3.20;;;;;;;24.29;60.48;100638.91;5283654;27;20269;-77
2021/08/10 10:59:37;;;;;;;5.25;2.92;;;;;;;24.23;60.67;100631.41;5290043;27;20115;-77
2021/08/10 11:02:17;;;;;;;7.03;3.30;;;;;;;24.20;60.41;100637.06;5286705;27;20028;-78
2021/08/10 11:05:10;;;;;;;7.28;3.25;;;;;;;23.87;61.17;100642.75;5282896;27;20044;-77
2021/08/10 11:07:52;;;;;;;5.28;3.35;;;;;;;23.77;61.63;100633.84;5288724;27;20028;-77
2021/08/10 11:10:22;;;;;;;6.30;3.03;;;;;;;23.86;62.34;100634.91;5292274;27;20062;-77
2021/08/10 11:12:53;;;;;;;7.40;3.20;;;;;;;23.75;62.35;100638.50;5290129;27;20124;-77
2021/08/10 11:15:46;;;;;;;5.60;3.60;;;;;;;23.47;61.97;100641.03;5281898;27;20050;-77
2021/08/10 11:18:16;;;;;;;5.97;3.20;;;;;;;23.66;62.04;100636.63;5290025;27;20488;-76
2021/08/10 11:20:53;;;;;;;6.77;3.70;;;;;;;24.40;62.28;100630.72;5292619;27;20039;-77
2021/08/10 11:23:24;;;;;;;6.70;3.80;;;;;;;24.20;61.72;100636.22;5290189;27;20844;-78
2021/08/10 11:25:59;;;;;;;5.32;3.33;;;;;;;23.72;62.47;100638.75;5287917;27;20048;-77
2021/08/10 11:28:36;;;;;;;6.28;3.35;;;;;;;23.64;63.95;100641.25;5290499;27;20047;-78
2021/08/10 11:31:11;;;;;;;6.15;3.25;;;;;;;23.55;63.13;100641.22;5286734;27;20039;-77
2021/08/10 11:33:42;;;;;;;5.07;3.35;;;;;;;23.87;64.92;100642.75;5294385;27;20027;-76
2021/08/10 11:36:12;;;;;;;6.03;3.53;;;;;;;24.38;62.19;100632.69;5285966;27;20130;-76
2021/08/10 11:38:51;;;;;;;6.35;3.30;;;;;;;24.55;60.19;100641.88;5283227;27;20028;-76
2021/08/10 11:41:27;;;;;;;10.40;3.70;;;;;;;24.79;61.35;100641.28;5282332;27;20039;-81
2021/08/10 11:44:02;;;;;;;7.22;3.28;;;;;;;24.60;62.23;100637.81;5286410;27;20035;-78
2021/08/10 11:46:34;;;;;;;9.35;3.80;;;;;;;24.57;61.81;100639.91;5293444;27;20098;-78
2021/08/10 11:49:07;;;;;;;7.22;3.72;;;;;;;24.27;62.55;100635.53;5286088;27;20486;-77
2021/08/10 11:51:40;;;;;;;6.95;3.65;;;;;;;24.18;62.04;100639.00;5294447;27;20122;-78